Portada
METAR-TAF:

METAR-TAF

Aeropuertos :

Base Aérea de Torrejón / Aeropuerto de Madrid-Torrejón

Madrid-Torrejón, España

latitud: 40-29N, longitud: 003-27W, altitud: 607 m

Observación

El informe se hizo hace 1 hora y 8 minutos, a las 01:00 UTC
Viento 2 kt del norte
Temperatura 2°C
Humedad 93%
Presión 1032 hPa
Visibilidad 10 km o más
sin nubes por debajo de 1500 m y sin presencia de cumulonimbus.

METAR: LETO 100100Z 36002KT CAVOK 02/01 Q1032 NOSIG

Hora: 03:08 (02:08 UTC)

Pronóstico

El informe se hizo hace 3 horas y 8 minutos, a las 23:00 UTC
Pronóstico válido del 10 a las 00 UTC al 10 a las 24 UTC
Viento 8 kt del norte-noreste
Visibilidad 10 km o más
sin nubes por debajo de 1500 m y sin presencia de cumulonimbus.

TAF: LETO 092300Z 1000/1024 02008KT CAVOK TX16/1015Z TN01/1007Z

Observaciones y pronósticos meteorológicos de más de 4000 aeropuertos (mensajes METAR y TAF).

Los puntos amarillos y rojos representan las estaciones disponibles.

Ponga el ratón en el punto deseado para ver el nombre de la estación.

Haga clic para ver las observaciones y los pronósticos meteorológicos.

Para cambiar el mapa : haga clic en los botones verdes con una cruz de color negro para hacer un zoom, en el botón verde con un guión para alejar o en las flechas verdes para mapas adyacentes.


METAR-TAF: